createdAt,value
2023-01-29T00:00:34.965Z,4.77
2023-01-29T00:03:25.627Z,4.80
2023-01-29T00:05:55.607Z,6.40
2023-01-29T00:08:28.724Z,5.70
2023-01-29T00:11:03.722Z,5.80
2023-01-29T00:13:34.605Z,6.83
2023-01-29T00:16:06.318Z,3.73
2023-01-29T00:18:37.392Z,5.00
2023-01-29T00:21:11.008Z,7.23
2023-01-29T00:23:45.157Z,6.23
2023-01-29T00:26:15.657Z,5.40
2023-01-29T00:28:47.505Z,7.07
2023-01-29T00:31:19.256Z,4.33
2023-01-29T00:33:50.174Z,7.07
2023-01-29T00:36:22.432Z,4.23
2023-01-29T00:39:03.964Z,8.10
2023-01-29T00:41:48.086Z,5.63
2023-01-29T00:44:31.500Z,6.27
2023-01-29T00:47:02.258Z,7.20
2023-01-29T00:49:33.053Z,3.37
2023-01-29T00:52:15.643Z,6.87
2023-01-29T00:54:48.554Z,3.00
2023-01-29T00:57:18.644Z,6.40
2023-01-29T00:59:50.067Z,3.93
2023-01-29T01:02:32.624Z,5.70
2023-01-29T01:05:07.226Z,7.00
2023-01-29T01:07:38.284Z,7.93
2023-01-29T01:10:24.445Z,7.80
2023-01-29T01:12:58.939Z,7.23
2023-01-29T01:15:33.181Z,4.13
2023-01-29T01:18:04.986Z,4.87
2023-01-29T01:20:40.181Z,5.37
2023-01-29T01:23:11.793Z,5.40
2023-01-29T01:25:48.998Z,8.07
2023-01-29T01:28:22.452Z,6.20
2023-01-29T01:30:54.682Z,3.87
2023-01-29T01:33:31.817Z,7.77
2023-01-29T01:36:05.632Z,7.87
2023-01-29T01:38:45.469Z,8.07
2023-01-29T01:41:24.646Z,8.13
2023-01-29T01:44:00.266Z,8.10
2023-01-29T01:46:37.070Z,8.07
2023-01-29T01:49:13.530Z,6.43
2023-01-29T01:51:49.785Z,3.77
2023-01-29T01:54:28.250Z,4.97
2023-01-29T01:57:17.427Z,5.90
2023-01-29T01:59:55.982Z,8.73
2023-01-29T02:02:40.521Z,8.30
2023-01-29T02:05:26.274Z,9.47
2023-01-29T02:08:09.359Z,9.67
2023-01-29T02:10:44.500Z,9.23
2023-01-29T02:13:19.473Z,8.03
2023-01-29T02:15:50.048Z,9.70
2023-01-29T02:18:24.073Z,6.10
2023-01-29T02:21:10.628Z,5.83
2023-01-29T02:24:04.350Z,9.67
2023-01-29T02:26:47.273Z,9.57
2023-01-29T02:29:27.250Z,5.10
2023-01-29T02:32:12.670Z,8.70
2023-01-29T02:35:02.491Z,9.83
2023-01-29T02:37:38.986Z,3.70
2023-01-29T02:40:18.918Z,8.03
2023-01-29T02:42:57.144Z,8.20
2023-01-29T02:45:38.424Z,7.73
2023-01-29T02:48:08.976Z,9.50
2023-01-29T02:50:46.075Z,5.20
2023-01-29T02:53:19.167Z,9.80
2023-01-29T02:55:55.383Z,4.47
2023-01-29T02:58:33.448Z,10.07
2023-01-29T03:01:12.654Z,9.87
2023-01-29T03:03:47.375Z,10.10
2023-01-29T03:06:23.484Z,8.53
2023-01-29T03:08:58.078Z,10.63
2023-01-29T03:11:32.733Z,5.30
2023-01-29T03:14:07.400Z,7.87
2023-01-29T03:16:45.464Z,3.87
2023-01-29T03:19:18.499Z,4.50
2023-01-29T03:21:59.257Z,10.20
2023-01-29T03:24:49.472Z,10.70
2023-01-29T03:27:35.772Z,6.73
2023-01-29T03:30:20.437Z,4.90
2023-01-29T03:32:54.669Z,5.13
2023-01-29T03:35:36.653Z,8.27
2023-01-29T03:38:10.005Z,5.17
2023-01-29T03:40:52.011Z,9.70
2023-01-29T03:43:33.045Z,6.47
2023-01-29T03:46:08.483Z,10.30
2023-01-29T03:48:52.194Z,7.60
2023-01-29T03:51:29.119Z,9.97
2023-01-29T03:54:08.882Z,7.63
2023-01-29T03:56:55.417Z,4.07
2023-01-29T03:59:36.104Z,9.10
2023-01-29T04:02:10.196Z,4.37
2023-01-29T04:04:47.961Z,10.53
2023-01-29T04:07:23.802Z,4.87
2023-01-29T04:09:57.498Z,10.50
2023-01-29T04:12:31.583Z,10.73
2023-01-29T04:15:04.519Z,8.90
2023-01-29T04:17:40.563Z,5.33
2023-01-29T04:20:15.027Z,7.07
2023-01-29T04:22:48.447Z,8.03
2023-01-29T04:25:26.777Z,6.97
2023-01-29T04:28:06.193Z,10.50
2023-01-29T04:30:45.419Z,10.10
2023-01-29T04:33:30.091Z,9.40
2023-01-29T04:36:20.603Z,9.10
2023-01-29T04:39:01.363Z,7.83
2023-01-29T04:41:36.821Z,11.47
2023-01-29T04:44:15.395Z,11.90
2023-01-29T04:46:52.291Z,5.63
2023-01-29T04:49:35.259Z,6.57
2023-01-29T04:52:15.209Z,12.13
2023-01-29T04:55:01.178Z,12.07
2023-01-29T04:57:38.832Z,12.30
2023-01-29T05:00:15.200Z,12.53
2023-01-29T05:02:48.286Z,12.37
2023-01-29T05:05:22.224Z,6.10
2023-01-29T05:07:56.131Z,7.90
2023-01-29T05:10:27.672Z,6.73
2023-01-29T05:13:03.140Z,7.17
2023-01-29T05:15:39.770Z,8.70
2023-01-29T05:18:11.576Z,12.77
2023-01-29T05:20:44.284Z,9.67
2023-01-29T05:23:22.636Z,14.00
2023-01-29T05:25:54.380Z,14.80
2023-01-29T05:28:22.535Z,13.73
2023-01-29T05:30:55.181Z,15.17
2023-01-29T05:33:26.963Z,15.37
2023-01-29T05:35:57.915Z,14.83
2023-01-29T05:38:30.752Z,11.37
2023-01-29T05:41:01.787Z,15.80
2023-01-29T05:43:32.075Z,12.53
2023-01-29T05:46:04.917Z,14.27
2023-01-29T05:48:35.272Z,16.83
2023-01-29T05:51:06.033Z,15.73
2023-01-29T05:53:39.012Z,18.33
2023-01-29T05:56:09.644Z,14.90
2023-01-29T05:58:40.029Z,15.90
2023-01-29T06:01:15.144Z,18.53
2023-01-29T06:03:46.253Z,18.17
2023-01-29T06:06:16.855Z,16.43
2023-01-29T06:08:49.947Z,12.73
2023-01-29T06:11:21.699Z,18.50
2023-01-29T06:13:52.031Z,17.30
2023-01-29T06:16:22.035Z,14.40
2023-01-29T06:18:52.327Z,18.27
2023-01-29T06:21:22.263Z,7.37
2023-01-29T06:23:55.437Z,17.40
2023-01-29T06:26:25.485Z,14.40
2023-01-29T06:28:55.786Z,6.93
2023-01-29T06:31:37.832Z,12.43
2023-01-29T06:34:09.636Z,9.07
2023-01-29T06:36:39.975Z,11.37
2023-01-29T06:39:13.142Z,17.53
2023-01-29T06:41:43.138Z,16.03
2023-01-29T06:44:13.470Z,19.17
2023-01-29T06:46:43.467Z,18.27
2023-01-29T06:49:13.825Z,13.10
2023-01-29T06:51:43.721Z,20.43
2023-01-29T06:54:17.153Z,10.57
2023-01-29T06:56:47.293Z,16.40
2023-01-29T06:59:17.773Z,8.27
2023-01-29T07:01:47.907Z,9.50
2023-01-29T07:04:18.282Z,11.27
2023-01-29T07:06:48.246Z,19.43
2023-01-29T07:09:21.170Z,19.93
2023-01-29T07:11:51.143Z,17.37
2023-01-29T07:14:21.450Z,9.03
2023-01-29T07:16:51.494Z,18.90
2023-01-29T07:19:21.786Z,14.97
2023-01-29T07:21:51.964Z,14.20
2023-01-29T07:24:25.088Z,19.03
2023-01-29T07:26:55.574Z,18.57
2023-01-29T07:29:26.678Z,19.53
2023-01-29T07:31:59.441Z,17.47
2023-01-29T07:34:29.910Z,19.53
2023-01-29T07:36:59.850Z,18.73
2023-01-29T07:39:33.403Z,16.93
2023-01-29T07:42:03.427Z,19.00
2023-01-29T07:44:33.864Z,13.93
2023-01-29T07:47:03.816Z,11.17
2023-01-29T07:49:34.364Z,11.67
2023-01-29T07:52:04.245Z,11.20
2023-01-29T07:54:37.161Z,10.03
2023-01-29T07:57:07.389Z,15.67
2023-01-29T07:59:37.875Z,12.97
2023-01-29T08:02:08.025Z,19.90
2023-01-29T08:04:38.510Z,17.37
2023-01-29T08:07:09.479Z,11.00
2023-01-29T08:09:42.446Z,8.30
2023-01-29T08:12:12.403Z,11.23
2023-01-29T08:14:43.179Z,11.27
2023-01-29T08:17:15.317Z,14.17
2023-01-29T08:19:45.675Z,17.30
2023-01-29T08:22:16.564Z,17.93
2023-01-29T08:24:54.399Z,16.07
2023-01-29T08:27:30.207Z,14.00
2023-01-29T08:30:00.552Z,13.20
2023-01-29T08:32:30.581Z,12.07
2023-01-29T08:35:01.075Z,21.03
2023-01-29T08:37:31.255Z,23.33
2023-01-29T08:40:04.258Z,21.37
2023-01-29T08:42:34.328Z,22.80
2023-01-29T08:45:04.862Z,18.00
2023-01-29T08:47:34.840Z,15.70
2023-01-29T08:50:05.178Z,7.07
2023-01-29T08:52:35.183Z,16.37
2023-01-29T08:55:09.240Z,15.47
2023-01-29T08:57:39.458Z,22.47
2023-01-29T09:00:11.989Z,21.10
2023-01-29T09:02:44.402Z,21.03
2023-01-29T09:05:15.349Z,15.23
2023-01-29T09:07:45.650Z,18.97
2023-01-29T09:10:19.579Z,7.93
2023-01-29T09:12:49.601Z,13.13
2023-01-29T09:15:20.115Z,13.03
2023-01-29T09:17:50.852Z,10.23
2023-01-29T09:20:22.121Z,18.73
2023-01-29T09:22:53.719Z,8.17
2023-01-29T09:25:26.671Z,12.77
2023-01-29T09:27:57.169Z,20.00
2023-01-29T09:30:27.985Z,18.83
2023-01-29T09:32:58.302Z,18.37
2023-01-29T09:35:29.023Z,21.17
2023-01-29T09:37:59.369Z,17.47
2023-01-29T09:40:38.432Z,18.20
2023-01-29T09:43:15.760Z,16.13
2023-01-29T09:45:55.599Z,15.77
2023-01-29T09:48:31.415Z,14.63
2023-01-29T09:51:07.520Z,7.10
2023-01-29T09:53:43.752Z,16.63
2023-01-29T09:56:23.741Z,20.13
2023-01-29T09:58:53.771Z,18.77
2023-01-29T10:01:31.579Z,20.27
2023-01-29T10:04:21.804Z,15.80
2023-01-29T10:07:09.734Z,17.27
2023-01-29T10:10:07.608Z,9.30
2023-01-29T10:13:02.012Z,19.27
2023-01-29T10:15:45.889Z,17.93
2023-01-29T10:18:41.397Z,14.27
2023-01-29T10:21:28.058Z,17.37
2023-01-29T10:24:12.195Z,7.97
2023-01-29T10:26:43.623Z,15.40
2023-01-29T10:29:22.087Z,18.53
2023-01-29T10:31:58.139Z,11.50
2023-01-29T10:34:33.048Z,12.23
2023-01-29T10:37:04.528Z,15.23
2023-01-29T10:39:35.022Z,10.37
2023-01-29T10:42:19.075Z,11.30
2023-01-29T10:45:03.443Z,15.30
2023-01-29T10:47:53.619Z,14.80
2023-01-29T10:50:35.159Z,11.70
2023-01-29T10:53:22.700Z,6.10
2023-01-29T10:56:05.846Z,12.67
2023-01-29T10:58:46.903Z,12.70
2023-01-29T11:01:21.644Z,5.77
2023-01-29T11:04:00.965Z,15.00
2023-01-29T11:06:34.055Z,14.07
2023-01-29T11:09:11.094Z,12.20
2023-01-29T11:11:45.931Z,11.27
2023-01-29T11:14:19.467Z,8.00
2023-01-29T11:16:52.455Z,11.20
2023-01-29T11:19:40.086Z,13.53
2023-01-29T11:22:16.951Z,8.43
2023-01-29T11:24:47.475Z,11.43
2023-01-29T11:27:30.335Z,8.47
2023-01-29T11:30:00.326Z,11.30
2023-01-29T11:32:37.634Z,12.80
2023-01-29T11:35:23.052Z,7.17
2023-01-29T11:37:54.185Z,12.37
2023-01-29T11:40:39.625Z,11.07
2023-01-29T11:43:22.630Z,11.70
2023-01-29T11:45:54.355Z,11.30
2023-01-29T11:48:35.989Z,12.37
2023-01-29T11:51:06.767Z,7.67
2023-01-29T11:53:40.729Z,11.23
2023-01-29T11:56:23.395Z,10.57
2023-01-29T11:58:56.060Z,10.03
2023-01-29T12:01:35.067Z,4.60
2023-01-29T12:04:21.957Z,11.60
2023-01-29T12:06:55.544Z,10.90
2023-01-29T12:09:30.271Z,8.93
2023-01-29T12:12:20.371Z,9.20
2023-01-29T12:15:06.217Z,8.87
2023-01-29T12:17:40.744Z,9.87
2023-01-29T12:20:20.976Z,10.20
2023-01-29T12:22:58.980Z,10.03
2023-01-29T12:25:42.849Z,9.53
2023-01-29T12:28:25.357Z,7.83
2023-01-29T12:31:13.158Z,6.87
2023-01-29T12:33:51.402Z,7.40
2023-01-29T12:36:29.579Z,5.70
2023-01-29T12:38:59.931Z,10.63
2023-01-29T12:41:39.375Z,7.90
2023-01-29T12:44:19.964Z,4.70
2023-01-29T12:46:55.906Z,7.07
2023-01-29T12:49:30.374Z,8.93
2023-01-29T12:52:10.235Z,8.03
2023-01-29T12:54:44.088Z,5.63
2023-01-29T12:57:28.732Z,7.30
2023-01-29T13:00:04.486Z,6.57
2023-01-29T13:02:42.689Z,10.90
2023-01-29T13:05:23.025Z,3.87
2023-01-29T13:08:04.090Z,9.63
2023-01-29T13:10:45.797Z,10.03
2023-01-29T13:13:25.026Z,10.60
2023-01-29T13:15:56.817Z,8.77
2023-01-29T13:18:40.123Z,9.30
2023-01-29T13:21:16.371Z,9.57
2023-01-29T13:23:52.968Z,4.17
2023-01-29T13:26:24.277Z,4.03
2023-01-29T13:28:55.668Z,5.47
2023-01-29T13:31:34.527Z,6.97
2023-01-29T13:34:15.823Z,6.97
2023-01-29T13:36:48.279Z,7.30
2023-01-29T13:39:27.965Z,7.77
2023-01-29T13:41:59.890Z,7.77
2023-01-29T13:44:35.312Z,3.53
2023-01-29T13:47:07.987Z,4.03
2023-01-29T13:49:41.445Z,8.13
2023-01-29T13:52:24.389Z,9.13
2023-01-29T13:55:00.465Z,9.97
2023-01-29T13:57:56.712Z,6.23
2023-01-29T14:00:56.391Z,9.03
2023-01-29T14:04:05.939Z,10.10
2023-01-29T14:06:53.914Z,5.73
2023-01-29T14:09:58.801Z,9.53
2023-01-29T14:12:41.870Z,9.67
2023-01-29T14:15:32.863Z,6.37
2023-01-29T14:18:07.110Z,7.43
2023-01-29T14:20:46.012Z,4.43
2023-01-29T14:23:44.126Z,4.30
2023-01-29T14:26:28.734Z,6.60
2023-01-29T14:29:09.498Z,5.40
2023-01-29T14:31:44.083Z,4.37
2023-01-29T14:34:23.712Z,10.43
2023-01-29T14:36:57.931Z,9.83
2023-01-29T14:39:36.725Z,7.33
2023-01-29T14:42:17.615Z,7.93
2023-01-29T14:45:24.745Z,8.83
2023-01-29T14:48:04.003Z,7.73
2023-01-29T14:50:51.067Z,12.83
2023-01-29T14:53:26.873Z,14.20
2023-01-29T14:56:01.436Z,8.60
2023-01-29T14:58:40.145Z,9.50
2023-01-29T15:01:22.202Z,14.57
2023-01-29T15:03:54.859Z,8.67
2023-01-29T15:06:35.161Z,8.97
2023-01-29T15:09:15.401Z,9.97
2023-01-29T15:11:58.044Z,7.63
2023-01-29T15:14:34.141Z,10.80
2023-01-29T15:17:24.634Z,7.13
2023-01-29T15:19:55.130Z,9.97
2023-01-29T15:22:29.809Z,12.23
2023-01-29T15:25:09.473Z,5.80
2023-01-29T15:27:44.668Z,8.37
2023-01-29T15:30:20.575Z,9.70
2023-01-29T15:32:53.842Z,6.53
2023-01-29T15:35:31.759Z,9.07
2023-01-29T15:38:04.697Z,7.97
2023-01-29T15:40:35.902Z,8.17
2023-01-29T15:43:25.474Z,8.80
2023-01-29T15:45:58.239Z,13.27
2023-01-29T15:48:34.763Z,8.73
2023-01-29T15:51:08.564Z,8.90
2023-01-29T15:53:45.204Z,10.90
2023-01-29T15:56:18.139Z,9.40
2023-01-29T15:58:51.969Z,6.93
2023-01-29T16:01:22.976Z,7.50
2023-01-29T16:03:59.249Z,11.77
2023-01-29T16:06:30.382Z,7.17
2023-01-29T16:09:00.829Z,7.10
2023-01-29T16:11:31.256Z,9.67
2023-01-29T16:14:01.826Z,10.90
2023-01-29T16:16:32.034Z,10.90
2023-01-29T16:19:16.031Z,11.50
2023-01-29T16:21:47.105Z,12.73
2023-01-29T16:24:22.442Z,7.73
2023-01-29T16:26:54.535Z,11.30
2023-01-29T16:29:27.500Z,13.90
2023-01-29T16:32:01.982Z,11.00
2023-01-29T16:34:39.199Z,9.87
2023-01-29T16:37:20.706Z,16.33
2023-01-29T16:39:53.028Z,14.13
2023-01-29T16:42:26.340Z,8.97
2023-01-29T16:45:03.926Z,9.23
2023-01-29T16:47:37.431Z,10.10
2023-01-29T16:50:35.992Z,8.87
2023-01-29T16:53:21.876Z,8.77
2023-01-29T16:55:54.862Z,14.70
2023-01-29T16:58:30.291Z,7.97
2023-01-29T17:01:04.093Z,10.27
2023-01-29T17:03:37.147Z,9.73
2023-01-29T17:06:16.050Z,8.57
2023-01-29T17:08:46.614Z,7.27
2023-01-29T17:11:30.257Z,9.20
2023-01-29T17:14:00.660Z,10.13
2023-01-29T17:16:33.350Z,8.00
2023-01-29T17:19:05.547Z,9.73
2023-01-29T17:21:39.064Z,7.63
2023-01-29T17:24:10.219Z,8.70
2023-01-29T17:26:41.282Z,15.17
2023-01-29T17:29:16.222Z,8.30
2023-01-29T17:31:47.202Z,9.07
2023-01-29T17:34:18.755Z,9.20
2023-01-29T17:36:52.051Z,10.40
2023-01-29T17:39:24.045Z,8.67
2023-01-29T17:41:56.733Z,10.33
2023-01-29T17:44:28.800Z,14.23
2023-01-29T17:46:59.842Z,15.53
2023-01-29T17:49:32.304Z,7.17
2023-01-29T17:52:05.325Z,7.13
2023-01-29T17:54:35.510Z,10.87
2023-01-29T17:57:06.379Z,13.03
2023-01-29T17:59:36.873Z,8.10
2023-01-29T18:02:08.821Z,9.63
2023-01-29T18:05:00.668Z,12.97
2023-01-29T18:07:33.837Z,10.93
2023-01-29T18:10:03.974Z,6.10
2023-01-29T18:12:34.874Z,12.60
2023-01-29T18:15:05.009Z,12.80
2023-01-29T18:17:35.476Z,13.53
2023-01-29T18:20:06.577Z,14.23
2023-01-29T18:22:39.587Z,12.83
2023-01-29T18:25:10.548Z,6.97
2023-01-29T18:27:41.159Z,7.83
2023-01-29T18:30:12.960Z,9.27
2023-01-29T18:32:43.633Z,8.87
2023-01-29T18:35:13.727Z,7.27
2023-01-29T18:37:47.004Z,12.43
2023-01-29T18:40:17.473Z,10.33
2023-01-29T18:42:48.719Z,8.53
2023-01-29T18:45:19.169Z,6.60
2023-01-29T18:47:49.800Z,13.40
2023-01-29T18:50:23.375Z,9.57
2023-01-29T18:52:57.093Z,11.23
2023-01-29T18:55:27.617Z,7.57
2023-01-29T18:58:28.033Z,9.90
2023-01-29T19:00:48.438Z,8.60
2023-01-29T19:03:21.829Z,8.47
2023-01-29T19:05:52.042Z,7.37
2023-01-29T19:08:25.093Z,12.37
2023-01-29T19:10:55.773Z,11.57
2023-01-29T19:13:29.193Z,5.90
2023-01-29T19:15:59.360Z,8.20
2023-01-29T19:18:30.510Z,5.43
2023-01-29T19:21:00.610Z,9.57
2023-01-29T19:23:33.727Z,7.77
2023-01-29T19:26:03.744Z,8.27
2023-01-29T19:28:34.264Z,10.43
2023-01-29T19:31:04.618Z,3.77
2023-01-29T19:33:35.250Z,8.50
2023-01-29T19:36:07.097Z,9.73
2023-01-29T19:38:40.917Z,8.70
2023-01-29T19:41:11.001Z,11.63
2023-01-29T19:43:43.001Z,9.90
2023-01-29T19:46:13.848Z,8.30
2023-01-29T19:48:44.724Z,5.93
2023-01-29T19:51:15.407Z,6.30
2023-01-29T19:53:48.874Z,6.23
2023-01-29T19:56:20.629Z,4.97
2023-01-29T19:58:57.447Z,5.37
2023-01-29T20:01:29.525Z,5.63
2023-01-29T20:04:00.309Z,7.30
2023-01-29T20:06:32.662Z,8.27
2023-01-29T20:11:56.246Z,5.57
2023-01-29T20:14:30.649Z,7.63
2023-01-29T20:17:00.794Z,6.07
2023-01-29T20:19:31.314Z,5.57
2023-01-29T20:22:02.573Z,5.50
2023-01-29T20:32:50.523Z,5.80
2023-01-29T20:35:23.715Z,6.60
2023-01-29T20:37:53.678Z,6.00
2023-01-29T20:40:25.664Z,6.43
2023-01-29T20:42:56.161Z,6.40
2023-01-29T20:45:27.243Z,8.33
2023-01-29T20:48:00.419Z,7.33
2023-01-29T20:50:37.631Z,5.70
2023-01-29T20:53:08.069Z,7.00
2023-01-29T20:55:39.173Z,8.40
2023-01-29T20:58:09.705Z,4.43
2023-01-29T21:00:40.595Z,5.93
2023-01-29T21:03:13.239Z,6.83
2023-01-29T21:05:44.923Z,3.70
2023-01-29T21:08:17.297Z,5.50
2023-01-29T21:10:47.843Z,6.90
2023-01-29T21:13:17.848Z,8.70
2023-01-29T21:15:48.238Z,5.13
2023-01-29T21:18:26.767Z,5.63
2023-01-29T21:20:57.569Z,6.93
2023-01-29T21:23:27.579Z,6.43
2023-01-29T21:26:04.365Z,5.17
2023-01-29T21:28:35.270Z,7.50
2023-01-29T21:31:07.494Z,5.47
2023-01-29T21:33:40.269Z,4.40
2023-01-29T21:36:12.340Z,6.37
2023-01-29T21:38:42.341Z,7.13
2023-01-29T21:41:12.715Z,5.93
2023-01-29T21:43:40.076Z,3.33
2023-01-29T21:46:12.252Z,5.70
2023-01-29T21:48:45.033Z,6.07
2023-01-29T21:51:17.278Z,5.43
2023-01-29T21:53:48.747Z,7.23
2023-01-29T21:56:19.648Z,5.10
2023-01-29T21:58:49.930Z,6.67
2023-01-29T22:01:36.759Z,5.27
2023-01-29T22:04:15.682Z,7.53
2023-01-29T22:06:46.076Z,4.97
2023-01-29T22:09:18.674Z,8.53
2023-01-29T22:11:49.278Z,7.33
2023-01-29T22:14:19.682Z,5.77
2023-01-29T22:16:50.119Z,5.97
2023-01-29T22:19:23.587Z,5.10
2023-01-29T22:21:54.763Z,6.67
2023-01-29T22:24:25.389Z,6.03
2023-01-29T22:26:55.806Z,7.17
2023-01-29T22:29:25.848Z,5.10
2023-01-29T22:31:56.583Z,6.57
2023-01-29T22:34:29.236Z,7.70
2023-01-29T22:37:00.110Z,5.53
2023-01-29T22:39:30.212Z,4.60
2023-01-29T22:42:00.580Z,5.53
2023-01-29T22:44:30.657Z,5.90
2023-01-29T22:47:01.003Z,4.93
2023-01-29T22:49:33.576Z,5.00
2023-01-29T22:52:12.845Z,6.43
2023-01-29T22:54:44.491Z,8.20
2023-01-29T22:57:17.151Z,5.07
2023-01-29T22:59:47.699Z,8.87
2023-01-29T23:02:18.738Z,6.53
2023-01-29T23:05:06.483Z,5.70
2023-01-29T23:07:37.560Z,5.83
2023-01-29T23:10:08.963Z,7.77
2023-01-29T23:12:39.859Z,7.30
2023-01-29T23:15:10.907Z,6.97
2023-01-29T23:17:41.459Z,5.87
2023-01-29T23:20:15.493Z,5.50
2023-01-29T23:22:45.855Z,5.83
2023-01-29T23:25:16.217Z,6.17
2023-01-29T23:27:43.974Z,4.97
2023-01-29T23:30:14.954Z,7.43
2023-01-29T23:32:45.729Z,7.13
2023-01-29T23:35:18.485Z,7.03
2023-01-29T23:37:49.135Z,6.87
2023-01-29T23:40:20.044Z,6.30
2023-01-29T23:42:51.285Z,6.93
2023-01-29T23:45:21.200Z,6.80
2023-01-29T23:47:51.499Z,7.70
2023-01-29T23:50:24.105Z,6.20
2023-01-29T23:52:54.297Z,6.90
2023-01-29T23:55:24.253Z,9.40
2023-01-29T23:57:54.526Z,7.77
